WMKC/KBR METAR and TAF weather

Enter ICAO airport designator
Station Type Date Time Source
WMKC METAR 2018/12/11 20:00 UTC NOAA

WMKC 112000Z 00000KT 7000 -RA FEW010 SCT020 OVC190 25/24 Q1009


Station Type Date Time Source
WMKC Decoded METAR 2018/12/11 20:00 UTC NOAA

Kota Bharu, Malaysia (WMKC) 06-10N 102-17E 5M
Dec 11, 2018 - 03:00 PM EST / 2018.12.11 2000 UTC
Wind: Calm:0
Visibility: 4 mile(s):0
Sky conditions: overcast
Weather: light rain
Temperature: 77 F (25 C)
Dew Point: 75 F (24 C)
Relative Humidity: 94%
Pressure (altimeter): 29.80 in. Hg (1009 hPa)
ob: WMKC 112000Z 00000KT 7000 -RA FEW010 SCT020 OVC190 25/24 Q1009
cycle: 20

Station Type Date Time Source
WMKC TAF 2018/12/11 18:00 UTC NOAA

TAF WMKC 111700Z 1118/1218 VRB03KT 5000 RA FEW010 SCT020 OVC190
BECMG 1214/1216 20005KT


Example: see airport list